sensor_id;sensor_type;location;lat;lon;timestamp;P1;durP1;ratioP1;P2;durP2;ratioP2
68821;SDS011;55834;50.870;4.606;2023-03-21T00:00:52;6.88;;;3.47;;
68821;SDS011;55834;50.870;4.606;2023-03-21T00:03:27;7.50;;;4.40;;
68821;SDS011;55834;50.870;4.606;2023-03-21T00:05:54;9.10;;;4.13;;
68821;SDS011;55834;50.870;4.606;2023-03-21T00:08:21;10.95;;;4.57;;
68821;SDS011;55834;50.870;4.606;2023-03-21T00:10:54;9.57;;;4.15;;
68821;SDS011;55834;50.870;4.606;2023-03-21T00:13:24;9.32;;;4.07;;
68821;SDS011;55834;50.870;4.606;2023-03-21T00:15:52;9.63;;;4.78;;
68821;SDS011;55834;50.870;4.606;2023-03-21T00:18:21;6.40;;;3.10;;
68821;SDS011;55834;50.870;4.606;2023-03-21T00:21:01;6.38;;;3.28;;
68821;SDS011;55834;50.870;4.606;2023-03-21T00:25:54;9.43;;;4.18;;
68821;SDS011;55834;50.870;4.606;2023-03-21T00:28:20;7.10;;;3.53;;
68821;SDS011;55834;50.870;4.606;2023-03-21T00:30:46;5.57;;;3.60;;
68821;SDS011;55834;50.870;4.606;2023-03-21T00:33:12;6.65;;;3.60;;
68821;SDS011;55834;50.870;4.606;2023-03-21T00:35:38;6.45;;;3.17;;
68821;SDS011;55834;50.870;4.606;2023-03-21T00:38:06;7.10;;;3.40;;
68821;SDS011;55834;50.870;4.606;2023-03-21T00:40:31;10.63;;;5.43;;
68821;SDS011;55834;50.870;4.606;2023-03-21T00:42:57;4.97;;;3.70;;
68821;SDS011;55834;50.870;4.606;2023-03-21T00:45:22;5.45;;;2.78;;
68821;SDS011;55834;50.870;4.606;2023-03-21T00:47:47;6.27;;;3.17;;
68821;SDS011;55834;50.870;4.606;2023-03-21T00:50:13;5.23;;;3.10;;
68821;SDS011;55834;50.870;4.606;2023-03-21T00:52:38;6.87;;;3.87;;
68821;SDS011;55834;50.870;4.606;2023-03-21T00:55:04;5.90;;;3.10;;
68821;SDS011;55834;50.870;4.606;2023-03-21T00:57:30;4.78;;;2.88;;
68821;SDS011;55834;50.870;4.606;2023-03-21T00:59:55;6.13;;;2.90;;
68821;SDS011;55834;50.870;4.606;2023-03-21T01:02:22;3.22;;;2.65;;
68821;SDS011;55834;50.870;4.606;2023-03-21T01:04:51;6.28;;;2.75;;
68821;SDS011;55834;50.870;4.606;2023-03-21T01:09:43;5.10;;;2.80;;
68821;SDS011;55834;50.870;4.606;2023-03-21T01:12:08;5.78;;;2.67;;
68821;SDS011;55834;50.870;4.606;2023-03-21T01:14:34;7.78;;;3.50;;
68821;SDS011;55834;50.870;4.606;2023-03-21T01:17:00;7.85;;;2.90;;
68821;SDS011;55834;50.870;4.606;2023-03-21T01:19:25;4.97;;;2.95;;
68821;SDS011;55834;50.870;4.606;2023-03-21T01:21:52;5.65;;;3.05;;
68821;SDS011;55834;50.870;4.606;2023-03-21T01:24:18;6.53;;;3.47;;
68821;SDS011;55834;50.870;4.606;2023-03-21T01:26:43;5.07;;;3.10;;
68821;SDS011;55834;50.870;4.606;2023-03-21T01:29:08;6.30;;;3.17;;
68821;SDS011;55834;50.870;4.606;2023-03-21T01:31:33;6.13;;;2.93;;
68821;SDS011;55834;50.870;4.606;2023-03-21T01:33:59;7.70;;;4.30;;
68821;SDS011;55834;50.870;4.606;2023-03-21T01:36:25;8.30;;;3.30;;
68821;SDS011;55834;50.870;4.606;2023-03-21T01:38:51;4.25;;;2.97;;
68821;SDS011;55834;50.870;4.606;2023-03-21T01:41:24;7.22;;;3.60;;
68821;SDS011;55834;50.870;4.606;2023-03-21T01:43:59;5.07;;;2.95;;
68821;SDS011;55834;50.870;4.606;2023-03-21T01:48:54;6.30;;;3.33;;
68821;SDS011;55834;50.870;4.606;2023-03-21T01:51:32;8.20;;;3.65;;
68821;SDS011;55834;50.870;4.606;2023-03-21T01:54:01;6.88;;;3.65;;
68821;SDS011;55834;50.870;4.606;2023-03-21T01:56:32;6.32;;;2.70;;
68821;SDS011;55834;50.870;4.606;2023-03-21T02:01:30;6.03;;;3.80;;
68821;SDS011;55834;50.870;4.606;2023-03-21T02:03:59;6.38;;;3.03;;
68821;SDS011;55834;50.870;4.606;2023-03-21T02:09:11;4.95;;;3.05;;
68821;SDS011;55834;50.870;4.606;2023-03-21T02:11:40;5.82;;;3.13;;
68821;SDS011;55834;50.870;4.606;2023-03-21T02:14:11;8.45;;;3.70;;
68821;SDS011;55834;50.870;4.606;2023-03-21T02:24:56;5.05;;;3.00;;
68821;SDS011;55834;50.870;4.606;2023-03-21T02:27:28;9.85;;;5.00;;
68821;SDS011;55834;50.870;4.606;2023-03-21T02:30:02;6.32;;;3.13;;
68821;SDS011;55834;50.870;4.606;2023-03-21T02:38:21;8.00;;;3.35;;
68821;SDS011;55834;50.870;4.606;2023-03-21T02:43:53;8.23;;;4.35;;
68821;SDS011;55834;50.870;4.606;2023-03-21T02:49:10;8.02;;;5.00;;
68821;SDS011;55834;50.870;4.606;2023-03-21T02:51:40;5.40;;;3.05;;
68821;SDS011;55834;50.870;4.606;2023-03-21T02:54:11;4.85;;;3.15;;
68821;SDS011;55834;50.870;4.606;2023-03-21T02:56:40;10.38;;;4.43;;
68821;SDS011;55834;50.870;4.606;2023-03-21T02:59:07;6.97;;;3.38;;
68821;SDS011;55834;50.870;4.606;2023-03-21T03:01:34;7.85;;;4.03;;
68821;SDS011;55834;50.870;4.606;2023-03-21T03:03:59;6.20;;;2.70;;
68821;SDS011;55834;50.870;4.606;2023-03-21T03:06:26;6.10;;;3.55;;
68821;SDS011;55834;50.870;4.606;2023-03-21T03:11:32;4.55;;;2.92;;
68821;SDS011;55834;50.870;4.606;2023-03-21T03:19:18;8.68;;;3.30;;
68821;SDS011;55834;50.870;4.606;2023-03-21T03:21:55;5.43;;;3.00;;
68821;SDS011;55834;50.870;4.606;2023-03-21T03:24:26;6.70;;;2.45;;
68821;SDS011;55834;50.870;4.606;2023-03-21T03:27:18;6.35;;;4.03;;
68821;SDS011;55834;50.870;4.606;2023-03-21T03:29:53;8.00;;;3.60;;
68821;SDS011;55834;50.870;4.606;2023-03-21T03:32:27;4.80;;;2.05;;
68821;SDS011;55834;50.870;4.606;2023-03-21T03:34:59;6.90;;;2.38;;
68821;SDS011;55834;50.870;4.606;2023-03-21T03:37:29;7.72;;;2.20;;
68821;SDS011;55834;50.870;4.606;2023-03-21T03:40:03;4.97;;;2.78;;
68821;SDS011;55834;50.870;4.606;2023-03-21T03:42:32;7.72;;;2.22;;
68821;SDS011;55834;50.870;4.606;2023-03-21T03:45:01;3.80;;;2.30;;
68821;SDS011;55834;50.870;4.606;2023-03-21T03:50:24;4.93;;;2.33;;
68821;SDS011;55834;50.870;4.606;2023-03-21T03:52:55;3.80;;;1.98;;
68821;SDS011;55834;50.870;4.606;2023-03-21T03:57:58;4.95;;;2.42;;
68821;SDS011;55834;50.870;4.606;2023-03-21T04:00:24;6.32;;;2.58;;
68821;SDS011;55834;50.870;4.606;2023-03-21T04:02:52;7.70;;;3.08;;
68821;SDS011;55834;50.870;4.606;2023-03-21T04:05:17;6.10;;;2.60;;
68821;SDS011;55834;50.870;4.606;2023-03-21T04:10:10;5.28;;;2.58;;
68821;SDS011;55834;50.870;4.606;2023-03-21T04:12:36;7.13;;;3.55;;
68821;SDS011;55834;50.870;4.606;2023-03-21T04:15:01;13.33;;;4.23;;
68821;SDS011;55834;50.870;4.606;2023-03-21T04:17:27;6.30;;;3.30;;
68821;SDS011;55834;50.870;4.606;2023-03-21T04:19:52;9.00;;;3.10;;
68821;SDS011;55834;50.870;4.606;2023-03-21T04:22:17;6.70;;;2.43;;
68821;SDS011;55834;50.870;4.606;2023-03-21T04:24:43;5.23;;;2.57;;
68821;SDS011;55834;50.870;4.606;2023-03-21T04:27:08;8.82;;;3.90;;
68821;SDS011;55834;50.870;4.606;2023-03-21T04:29:34;12.45;;;4.00;;
68821;SDS011;55834;50.870;4.606;2023-03-21T04:31:59;6.90;;;3.57;;
68821;SDS011;55834;50.870;4.606;2023-03-21T04:34:25;7.57;;;3.47;;
68821;SDS011;55834;50.870;4.606;2023-03-21T04:36:52;10.27;;;3.40;;
68821;SDS011;55834;50.870;4.606;2023-03-21T04:39:18;5.40;;;2.95;;
68821;SDS011;55834;50.870;4.606;2023-03-21T04:41:44;8.07;;;3.75;;
68821;SDS011;55834;50.870;4.606;2023-03-21T04:44:11;6.85;;;4.03;;
68821;SDS011;55834;50.870;4.606;2023-03-21T04:46:37;10.88;;;4.20;;
68821;SDS011;55834;50.870;4.606;2023-03-21T04:49:03;6.75;;;3.80;;
68821;SDS011;55834;50.870;4.606;2023-03-21T04:53:56;8.43;;;4.20;;
68821;SDS011;55834;50.870;4.606;2023-03-21T04:56:24;14.63;;;4.20;;
68821;SDS011;55834;50.870;4.606;2023-03-21T04:58:56;9.45;;;3.42;;
68821;SDS011;55834;50.870;4.606;2023-03-21T05:01:26;9.32;;;4.05;;
68821;SDS011;55834;50.870;4.606;2023-03-21T05:03:54;9.93;;;3.53;;
68821;SDS011;55834;50.870;4.606;2023-03-21T05:06:23;15.80;;;4.85;;
68821;SDS011;55834;50.870;4.606;2023-03-21T05:08:50;10.75;;;4.20;;
68821;SDS011;55834;50.870;4.606;2023-03-21T05:11:16;11.35;;;4.07;;
68821;SDS011;55834;50.870;4.606;2023-03-21T05:13:41;8.47;;;4.30;;
68821;SDS011;55834;50.870;4.606;2023-03-21T05:16:06;8.77;;;4.22;;
68821;SDS011;55834;50.870;4.606;2023-03-21T05:18:32;14.10;;;4.32;;
68821;SDS011;55834;50.870;4.606;2023-03-21T05:20:58;10.75;;;4.22;;
68821;SDS011;55834;50.870;4.606;2023-03-21T05:23:24;9.88;;;3.45;;
68821;SDS011;55834;50.870;4.606;2023-03-21T05:25:55;9.13;;;3.25;;
68821;SDS011;55834;50.870;4.606;2023-03-21T05:28:21;10.10;;;3.95;;
68821;SDS011;55834;50.870;4.606;2023-03-21T05:30:46;8.60;;;3.80;;
68821;SDS011;55834;50.870;4.606;2023-03-21T05:33:11;13.65;;;4.00;;
68821;SDS011;55834;50.870;4.606;2023-03-21T05:35:37;10.65;;;3.55;;
68821;SDS011;55834;50.870;4.606;2023-03-21T05:38:03;7.82;;;3.25;;
68821;SDS011;55834;50.870;4.606;2023-03-21T05:40:28;8.80;;;3.90;;
68821;SDS011;55834;50.870;4.606;2023-03-21T05:42:54;9.32;;;3.90;;
68821;SDS011;55834;50.870;4.606;2023-03-21T05:45:19;6.17;;;3.73;;
68821;SDS011;55834;50.870;4.606;2023-03-21T05:47:44;8.80;;;4.10;;
68821;SDS011;55834;50.870;4.606;2023-03-21T05:50:10;6.37;;;3.43;;
68821;SDS011;55834;50.870;4.606;2023-03-21T05:52:37;8.52;;;4.28;;
68821;SDS011;55834;50.870;4.606;2023-03-21T05:55:03;7.90;;;3.42;;
68821;SDS011;55834;50.870;4.606;2023-03-21T05:57:29;7.22;;;3.30;;
68821;SDS011;55834;50.870;4.606;2023-03-21T05:59:58;10.77;;;4.28;;
68821;SDS011;55834;50.870;4.606;2023-03-21T06:02:24;6.03;;;3.53;;
68821;SDS011;55834;50.870;4.606;2023-03-21T06:04:49;7.63;;;3.20;;
68821;SDS011;55834;50.870;4.606;2023-03-21T06:07:15;15.77;;;3.87;;
68821;SDS011;55834;50.870;4.606;2023-03-21T06:09:40;9.17;;;3.80;;
68821;SDS011;55834;50.870;4.606;2023-03-21T06:12:05;6.77;;;3.60;;
68821;SDS011;55834;50.870;4.606;2023-03-21T06:14:31;6.47;;;3.47;;
68821;SDS011;55834;50.870;4.606;2023-03-21T06:16:56;8.17;;;3.30;;
68821;SDS011;55834;50.870;4.606;2023-03-21T06:19:22;9.60;;;3.40;;
68821;SDS011;55834;50.870;4.606;2023-03-21T06:21:48;6.50;;;3.33;;
68821;SDS011;55834;50.870;4.606;2023-03-21T06:24:13;7.18;;;3.15;;
68821;SDS011;55834;50.870;4.606;2023-03-21T06:26:39;7.90;;;3.28;;
68821;SDS011;55834;50.870;4.606;2023-03-21T06:29:06;7.53;;;3.78;;
68821;SDS011;55834;50.870;4.606;2023-03-21T06:31:31;10.30;;;3.60;;
68821;SDS011;55834;50.870;4.606;2023-03-21T06:33:57;8.47;;;3.37;;
68821;SDS011;55834;50.870;4.606;2023-03-21T06:36:22;8.60;;;4.03;;
68821;SDS011;55834;50.870;4.606;2023-03-21T06:38:47;5.53;;;3.17;;
68821;SDS011;55834;50.870;4.606;2023-03-21T06:41:13;8.40;;;3.00;;
68821;SDS011;55834;50.870;4.606;2023-03-21T06:43:39;5.90;;;2.58;;
68821;SDS011;55834;50.870;4.606;2023-03-21T06:46:05;11.97;;;3.70;;
68821;SDS011;55834;50.870;4.606;2023-03-21T06:48:30;5.47;;;2.93;;
68821;SDS011;55834;50.870;4.606;2023-03-21T06:50:56;8.57;;;3.38;;
68821;SDS011;55834;50.870;4.606;2023-03-21T06:53:22;9.18;;;3.75;;
68821;SDS011;55834;50.870;4.606;2023-03-21T06:55:51;6.30;;;2.50;;
68821;SDS011;55834;50.870;4.606;2023-03-21T06:58:18;4.28;;;2.80;;
68821;SDS011;55834;50.870;4.606;2023-03-21T07:00:43;6.57;;;2.97;;
68821;SDS011;55834;50.870;4.606;2023-03-21T07:03:10;6.05;;;3.83;;
68821;SDS011;55834;50.870;4.606;2023-03-21T07:05:36;7.22;;;2.88;;
68821;SDS011;55834;50.870;4.606;2023-03-21T07:08:01;6.95;;;3.53;;
68821;SDS011;55834;50.870;4.606;2023-03-21T07:10:27;7.07;;;3.40;;
68821;SDS011;55834;50.870;4.606;2023-03-21T07:12:52;6.77;;;3.40;;
68821;SDS011;55834;50.870;4.606;2023-03-21T07:15:18;8.93;;;3.17;;
68821;SDS011;55834;50.870;4.606;2023-03-21T07:17:43;6.55;;;3.15;;
68821;SDS011;55834;50.870;4.606;2023-03-21T07:20:09;6.85;;;3.20;;
68821;SDS011;55834;50.870;4.606;2023-03-21T07:22:36;7.32;;;2.50;;
68821;SDS011;55834;50.870;4.606;2023-03-21T07:25:02;9.05;;;2.88;;
68821;SDS011;55834;50.870;4.606;2023-03-21T07:27:28;5.03;;;2.55;;
68821;SDS011;55834;50.870;4.606;2023-03-21T07:29:54;5.93;;;2.85;;
68821;SDS011;55834;50.870;4.606;2023-03-21T07:32:19;5.07;;;2.88;;
68821;SDS011;55834;50.870;4.606;2023-03-21T07:34:45;4.32;;;3.03;;
68821;SDS011;55834;50.870;4.606;2023-03-21T07:37:10;5.50;;;2.50;;
68821;SDS011;55834;50.870;4.606;2023-03-21T07:39:35;5.00;;;2.00;;
68821;SDS011;55834;50.870;4.606;2023-03-21T07:42:01;5.13;;;2.20;;
68821;SDS011;55834;50.870;4.606;2023-03-21T07:44:26;10.10;;;2.50;;
68821;SDS011;55834;50.870;4.606;2023-03-21T07:46:53;4.90;;;2.13;;
68821;SDS011;55834;50.870;4.606;2023-03-21T07:49:18;5.82;;;2.10;;
68821;SDS011;55834;50.870;4.606;2023-03-21T07:51:44;4.78;;;2.28;;
68821;SDS011;55834;50.870;4.606;2023-03-21T07:54:10;4.38;;;2.10;;
68821;SDS011;55834;50.870;4.606;2023-03-21T07:56:35;3.37;;;1.57;;
68821;SDS011;55834;50.870;4.606;2023-03-21T07:59:00;5.40;;;1.90;;
68821;SDS011;55834;50.870;4.606;2023-03-21T08:01:26;3.53;;;2.20;;
68821;SDS011;55834;50.870;4.606;2023-03-21T08:03:51;5.33;;;1.70;;
68821;SDS011;55834;50.870;4.606;2023-03-21T08:06:19;3.97;;;1.73;;
68821;SDS011;55834;50.870;4.606;2023-03-21T08:08:45;7.53;;;2.97;;
68821;SDS011;55834;50.870;4.606;2023-03-21T08:11:10;5.47;;;2.72;;
68821;SDS011;55834;50.870;4.606;2023-03-21T08:13:36;7.63;;;3.20;;
68821;SDS011;55834;50.870;4.606;2023-03-21T08:16:02;7.00;;;2.97;;
68821;SDS011;55834;50.870;4.606;2023-03-21T08:18:27;8.30;;;2.30;;
68821;SDS011;55834;50.870;4.606;2023-03-21T08:20:53;4.78;;;2.75;;
68821;SDS011;55834;50.870;4.606;2023-03-21T08:23:20;4.93;;;3.08;;
68821;SDS011;55834;50.870;4.606;2023-03-21T08:25:49;8.07;;;3.15;;
68821;SDS011;55834;50.870;4.606;2023-03-21T08:28:16;5.30;;;2.50;;
68821;SDS011;55834;50.870;4.606;2023-03-21T08:30:41;4.93;;;3.10;;
68821;SDS011;55834;50.870;4.606;2023-03-21T08:33:06;4.95;;;2.67;;
68821;SDS011;55834;50.870;4.606;2023-03-21T08:35:32;7.00;;;3.65;;
68821;SDS011;55834;50.870;4.606;2023-03-21T08:37:58;3.53;;;2.38;;
68821;SDS011;55834;50.870;4.606;2023-03-21T08:40:26;6.80;;;3.25;;
68821;SDS011;55834;50.870;4.606;2023-03-21T08:42:51;5.83;;;2.97;;
68821;SDS011;55834;50.870;4.606;2023-03-21T08:45:17;7.10;;;2.63;;
68821;SDS011;55834;50.870;4.606;2023-03-21T08:47:42;4.40;;;2.30;;
68821;SDS011;55834;50.870;4.606;2023-03-21T08:50:08;4.95;;;2.70;;
68821;SDS011;55834;50.870;4.606;2023-03-21T08:52:37;6.38;;;3.05;;
68821;SDS011;55834;50.870;4.606;2023-03-21T08:55:02;6.77;;;3.80;;
68821;SDS011;55834;50.870;4.606;2023-03-21T08:57:28;6.57;;;2.53;;
68821;SDS011;55834;50.870;4.606;2023-03-21T08:59:54;6.07;;;3.47;;
68821;SDS011;55834;50.870;4.606;2023-03-21T09:02:20;7.18;;;2.75;;
68821;SDS011;55834;50.870;4.606;2023-03-21T09:04:45;6.80;;;3.33;;
68821;SDS011;55834;50.870;4.606;2023-03-21T09:07:11;9.10;;;4.28;;
68821;SDS011;55834;50.870;4.606;2023-03-21T09:09:38;11.95;;;4.78;;
68821;SDS011;55834;50.870;4.606;2023-03-21T09:12:05;6.07;;;4.00;;
68821;SDS011;55834;50.870;4.606;2023-03-21T09:14:31;5.53;;;3.00;;
68821;SDS011;55834;50.870;4.606;2023-03-21T09:19:23;6.07;;;3.57;;
68821;SDS011;55834;50.870;4.606;2023-03-21T09:21:49;4.78;;;3.38;;
68821;SDS011;55834;50.870;4.606;2023-03-21T09:24:16;6.78;;;2.75;;
68821;SDS011;55834;50.870;4.606;2023-03-21T09:26:42;7.85;;;3.17;;
68821;SDS011;55834;50.870;4.606;2023-03-21T09:29:08;6.05;;;2.97;;
68821;SDS011;55834;50.870;4.606;2023-03-21T09:31:33;5.10;;;2.63;;
68821;SDS011;55834;50.870;4.606;2023-03-21T09:33:59;9.80;;;2.83;;
68821;SDS011;55834;50.870;4.606;2023-03-21T09:36:24;5.60;;;2.87;;
68821;SDS011;55834;50.870;4.606;2023-03-21T09:38:51;5.45;;;2.90;;
68821;SDS011;55834;50.870;4.606;2023-03-21T09:47:03;5.32;;;2.83;;
68821;SDS011;55834;50.870;4.606;2023-03-21T09:49:46;6.80;;;3.33;;
68821;SDS011;55834;50.870;4.606;2023-03-21T09:52:26;5.90;;;3.20;;
68821;SDS011;55834;50.870;4.606;2023-03-21T09:54:58;7.60;;;4.03;;
68821;SDS011;55834;50.870;4.606;2023-03-21T09:59:58;6.07;;;2.88;;
68821;SDS011;55834;50.870;4.606;2023-03-21T10:02:37;5.13;;;2.75;;
68821;SDS011;55834;50.870;4.606;2023-03-21T10:05:13;6.20;;;2.72;;
68821;SDS011;55834;50.870;4.606;2023-03-21T10:07:45;4.38;;;2.38;;
68821;SDS011;55834;50.870;4.606;2023-03-21T10:10:18;5.22;;;3.35;;
68821;SDS011;55834;50.870;4.606;2023-03-21T10:12:47;6.25;;;2.45;;
68821;SDS011;55834;50.870;4.606;2023-03-21T10:15:17;7.43;;;2.80;;
68821;SDS011;55834;50.870;4.606;2023-03-21T10:17:56;6.13;;;2.38;;
68821;SDS011;55834;50.870;4.606;2023-03-21T10:20:28;3.10;;;2.13;;
68821;SDS011;55834;50.870;4.606;2023-03-21T10:23:00;10.18;;;2.92;;
68821;SDS011;55834;50.870;4.606;2023-03-21T10:25:30;5.53;;;2.42;;
68821;SDS011;55834;50.870;4.606;2023-03-21T10:27:59;4.53;;;2.35;;
68821;SDS011;55834;50.870;4.606;2023-03-21T10:30:31;5.00;;;2.03;;
68821;SDS011;55834;50.870;4.606;2023-03-21T10:33:03;4.43;;;2.47;;
68821;SDS011;55834;50.870;4.606;2023-03-21T10:35:33;5.32;;;2.97;;
68821;SDS011;55834;50.870;4.606;2023-03-21T10:38:01;6.63;;;2.42;;
68821;SDS011;55834;50.870;4.606;2023-03-21T10:40:27;8.65;;;2.88;;
68821;SDS011;55834;50.870;4.606;2023-03-21T10:42:56;4.45;;;2.70;;
68821;SDS011;55834;50.870;4.606;2023-03-21T10:45:54;4.72;;;2.58;;
68821;SDS011;55834;50.870;4.606;2023-03-21T10:48:20;6.32;;;2.40;;
68821;SDS011;55834;50.870;4.606;2023-03-21T10:50:48;6.47;;;2.30;;
68821;SDS011;55834;50.870;4.606;2023-03-21T10:53:19;3.30;;;2.05;;
68821;SDS011;55834;50.870;4.606;2023-03-21T10:55:51;2.95;;;2.03;;
68821;SDS011;55834;50.870;4.606;2023-03-21T10:58:20;3.15;;;2.38;;
68821;SDS011;55834;50.870;4.606;2023-03-21T11:00:58;5.88;;;2.28;;
68821;SDS011;55834;50.870;4.606;2023-03-21T11:03:27;6.82;;;2.30;;
68821;SDS011;55834;50.870;4.606;2023-03-21T11:06:04;5.13;;;2.45;;
68821;SDS011;55834;50.870;4.606;2023-03-21T11:08:38;5.95;;;2.08;;
68821;SDS011;55834;50.870;4.606;2023-03-21T11:11:09;2.92;;;2.47;;
68821;SDS011;55834;50.870;4.606;2023-03-21T11:13:40;3.45;;;2.10;;
68821;SDS011;55834;50.870;4.606;2023-03-21T11:16:11;3.95;;;2.10;;
68821;SDS011;55834;50.870;4.606;2023-03-21T11:18:50;3.00;;;1.88;;
68821;SDS011;55834;50.870;4.606;2023-03-21T11:21:17;4.63;;;2.38;;
68821;SDS011;55834;50.870;4.606;2023-03-21T11:23:44;4.55;;;2.63;;
68821;SDS011;55834;50.870;4.606;2023-03-21T11:26:16;5.07;;;2.40;;
68821;SDS011;55834;50.870;4.606;2023-03-21T11:28:48;4.70;;;2.38;;
68821;SDS011;55834;50.870;4.606;2023-03-21T11:31:15;6.38;;;2.17;;
68821;SDS011;55834;50.870;4.606;2023-03-21T11:33:42;7.97;;;2.53;;
68821;SDS011;55834;50.870;4.606;2023-03-21T11:38:40;2.55;;;1.98;;
68821;SDS011;55834;50.870;4.606;2023-03-21T11:41:06;5.47;;;1.90;;
68821;SDS011;55834;50.870;4.606;2023-03-21T11:43:36;5.50;;;2.50;;
68821;SDS011;55834;50.870;4.606;2023-03-21T11:48:28;4.40;;;2.53;;
68821;SDS011;55834;50.870;4.606;2023-03-21T11:51:02;7.60;;;3.22;;
68821;SDS011;55834;50.870;4.606;2023-03-21T11:53:38;4.72;;;2.95;;
68821;SDS011;55834;50.870;4.606;2023-03-21T11:56:32;3.90;;;2.47;;
68821;SDS011;55834;50.870;4.606;2023-03-21T11:59:25;9.55;;;3.90;;
68821;SDS011;55834;50.870;4.606;2023-03-21T12:02:17;4.18;;;2.88;;
68821;SDS011;55834;50.870;4.606;2023-03-21T12:16:26;8.57;;;3.33;;
68821;SDS011;55834;50.870;4.606;2023-03-21T12:19:11;7.82;;;3.03;;
68821;SDS011;55834;50.870;4.606;2023-03-21T12:24:55;6.10;;;2.33;;
68821;SDS011;55834;50.870;4.606;2023-03-21T12:30:13;4.32;;;2.92;;
68821;SDS011;55834;50.870;4.606;2023-03-21T12:38:27;5.90;;;3.13;;
68821;SDS011;55834;50.870;4.606;2023-03-21T12:41:15;4.28;;;2.45;;
68821;SDS011;55834;50.870;4.606;2023-03-21T12:43:48;4.22;;;3.03;;
68821;SDS011;55834;50.870;4.606;2023-03-21T12:46:34;7.38;;;3.33;;
68821;SDS011;55834;50.870;4.606;2023-03-21T12:49:12;5.65;;;3.33;;
68821;SDS011;55834;50.870;4.606;2023-03-21T12:51:41;6.13;;;2.78;;
68821;SDS011;55834;50.870;4.606;2023-03-21T12:54:28;2.97;;;2.70;;
68821;SDS011;55834;50.870;4.606;2023-03-21T12:57:17;4.35;;;2.55;;
68821;SDS011;55834;50.870;4.606;2023-03-21T12:59:54;6.20;;;2.95;;
68821;SDS011;55834;50.870;4.606;2023-03-21T13:02:33;5.32;;;3.03;;
68821;SDS011;55834;50.870;4.606;2023-03-21T13:07:36;10.25;;;3.38;;
68821;SDS011;55834;50.870;4.606;2023-03-21T13:10:15;7.72;;;3.42;;
68821;SDS011;55834;50.870;4.606;2023-03-21T13:12:56;6.13;;;3.88;;
68821;SDS011;55834;50.870;4.606;2023-03-21T13:15:35;4.28;;;3.42;;
68821;SDS011;55834;50.870;4.606;2023-03-21T13:21:00;5.30;;;2.88;;
68821;SDS011;55834;50.870;4.606;2023-03-21T13:27:04;5.57;;;2.50;;
68821;SDS011;55834;50.870;4.606;2023-03-21T13:29:45;5.00;;;2.65;;
68821;SDS011;55834;50.870;4.606;2023-03-21T13:32:21;4.32;;;2.78;;
68821;SDS011;55834;50.870;4.606;2023-03-21T13:37:42;3.50;;;1.95;;
68821;SDS011;55834;50.870;4.606;2023-03-21T13:40:21;6.68;;;2.55;;
68821;SDS011;55834;50.870;4.606;2023-03-21T13:42:53;2.20;;;1.73;;
68821;SDS011;55834;50.870;4.606;2023-03-21T13:45:50;3.42;;;1.83;;
68821;SDS011;55834;50.870;4.606;2023-03-21T13:48:27;3.50;;;1.83;;
68821;SDS011;55834;50.870;4.606;2023-03-21T13:50:59;3.35;;;1.83;;
68821;SDS011;55834;50.870;4.606;2023-03-21T13:53:30;2.47;;;1.85;;
68821;SDS011;55834;50.870;4.606;2023-03-21T13:58:49;3.30;;;2.08;;
68821;SDS011;55834;50.870;4.606;2023-03-21T14:03:59;4.47;;;2.45;;
68821;SDS011;55834;50.870;4.606;2023-03-21T14:07:01;2.63;;;2.25;;
68821;SDS011;55834;50.870;4.606;2023-03-21T14:09:34;5.78;;;2.50;;
68821;SDS011;55834;50.870;4.606;2023-03-21T14:12:24;3.10;;;2.22;;
68821;SDS011;55834;50.870;4.606;2023-03-21T14:14:53;3.95;;;1.85;;
68821;SDS011;55834;50.870;4.606;2023-03-21T14:17:29;4.28;;;1.83;;
68821;SDS011;55834;50.870;4.606;2023-03-21T14:22:45;7.78;;;2.88;;
68821;SDS011;55834;50.870;4.606;2023-03-21T14:25:12;4.88;;;2.45;;
68821;SDS011;55834;50.870;4.606;2023-03-21T14:27:40;3.50;;;3.17;;
68821;SDS011;55834;50.870;4.606;2023-03-21T14:30:18;4.97;;;2.65;;
68821;SDS011;55834;50.870;4.606;2023-03-21T14:32:46;3.22;;;2.67;;
68821;SDS011;55834;50.870;4.606;2023-03-21T14:35:12;3.95;;;3.28;;
68821;SDS011;55834;50.870;4.606;2023-03-21T14:37:39;4.95;;;2.70;;
68821;SDS011;55834;50.870;4.606;2023-03-21T14:40:20;6.72;;;3.47;;
68821;SDS011;55834;50.870;4.606;2023-03-21T14:42:50;5.72;;;3.03;;
68821;SDS011;55834;50.870;4.606;2023-03-21T14:45:17;6.25;;;3.92;;
68821;SDS011;55834;50.870;4.606;2023-03-21T14:48:12;6.70;;;4.03;;
68821;SDS011;55834;50.870;4.606;2023-03-21T14:50:44;4.50;;;3.47;;
68821;SDS011;55834;50.870;4.606;2023-03-21T14:53:14;6.15;;;3.60;;
68821;SDS011;55834;50.870;4.606;2023-03-21T14:55:43;7.97;;;3.92;;
68821;SDS011;55834;50.870;4.606;2023-03-21T14:58:12;5.45;;;3.03;;
68821;SDS011;55834;50.870;4.606;2023-03-21T15:00:40;5.25;;;3.15;;
68821;SDS011;55834;50.870;4.606;2023-03-21T15:03:05;4.40;;;3.03;;
68821;SDS011;55834;50.870;4.606;2023-03-21T15:05:32;6.88;;;3.20;;
68821;SDS011;55834;50.870;4.606;2023-03-21T15:08:02;4.47;;;2.35;;
68821;SDS011;55834;50.870;4.606;2023-03-21T15:10:32;5.57;;;3.63;;
68821;SDS011;55834;50.870;4.606;2023-03-21T15:13:02;9.75;;;4.20;;
68821;SDS011;55834;50.870;4.606;2023-03-21T15:15:38;26.40;;;10.15;;
68821;SDS011;55834;50.870;4.606;2023-03-21T15:18:05;7.13;;;4.05;;
68821;SDS011;55834;50.870;4.606;2023-03-21T15:20:31;4.97;;;2.42;;
68821;SDS011;55834;50.870;4.606;2023-03-21T15:23:01;3.67;;;2.03;;
68821;SDS011;55834;50.870;4.606;2023-03-21T15:25:31;4.07;;;2.55;;
68821;SDS011;55834;50.870;4.606;2023-03-21T15:27:59;5.40;;;4.05;;
68821;SDS011;55834;50.870;4.606;2023-03-21T15:30:26;8.88;;;3.70;;
68821;SDS011;55834;50.870;4.606;2023-03-21T15:32:54;4.82;;;3.17;;
68821;SDS011;55834;50.870;4.606;2023-03-21T15:35:34;4.45;;;3.03;;
68821;SDS011;55834;50.870;4.606;2023-03-21T15:38:02;4.88;;;4.32;;
68821;SDS011;55834;50.870;4.606;2023-03-21T15:40:29;8.73;;;4.45;;
68821;SDS011;55834;50.870;4.606;2023-03-21T15:43:15;5.32;;;3.78;;
68821;SDS011;55834;50.870;4.606;2023-03-21T15:48:11;7.75;;;4.57;;
68821;SDS011;55834;50.870;4.606;2023-03-21T15:50:39;6.60;;;4.07;;
68821;SDS011;55834;50.870;4.606;2023-03-21T15:53:27;5.28;;;3.42;;
68821;SDS011;55834;50.870;4.606;2023-03-21T15:55:56;5.55;;;3.58;;
68821;SDS011;55834;50.870;4.606;2023-03-21T15:58:26;5.78;;;3.67;;
68821;SDS011;55834;50.870;4.606;2023-03-21T16:01:00;4.65;;;3.15;;
68821;SDS011;55834;50.870;4.606;2023-03-21T16:03:35;7.40;;;4.00;;
68821;SDS011;55834;50.870;4.606;2023-03-21T16:06:22;6.72;;;4.65;;
68821;SDS011;55834;50.870;4.606;2023-03-21T16:11:39;12.80;;;6.57;;
68821;SDS011;55834;50.870;4.606;2023-03-21T16:14:12;12.18;;;7.43;;
68821;SDS011;55834;50.870;4.606;2023-03-21T16:16:37;11.82;;;5.95;;
68821;SDS011;55834;50.870;4.606;2023-03-21T16:19:03;12.48;;;7.55;;
68821;SDS011;55834;50.870;4.606;2023-03-21T16:21:31;18.13;;;9.27;;
68821;SDS011;55834;50.870;4.606;2023-03-21T16:23:58;19.02;;;11.25;;
68821;SDS011;55834;50.870;4.606;2023-03-21T16:26:25;18.27;;;10.80;;
68821;SDS011;55834;50.870;4.606;2023-03-21T16:28:53;17.38;;;9.27;;
68821;SDS011;55834;50.870;4.606;2023-03-21T16:31:22;15.75;;;8.77;;
68821;SDS011;55834;50.870;4.606;2023-03-21T16:33:52;15.05;;;9.77;;
68821;SDS011;55834;50.870;4.606;2023-03-21T16:36:19;16.80;;;9.20;;
68821;SDS011;55834;50.870;4.606;2023-03-21T16:38:47;17.45;;;10.98;;
68821;SDS011;55834;50.870;4.606;2023-03-21T16:43:40;15.35;;;8.88;;
68821;SDS011;55834;50.870;4.606;2023-03-21T16:46:15;15.48;;;9.02;;
68821;SDS011;55834;50.870;4.606;2023-03-21T16:48:44;20.88;;;8.15;;
68821;SDS011;55834;50.870;4.606;2023-03-21T16:51:15;17.13;;;8.55;;
68821;SDS011;55834;50.870;4.606;2023-03-21T16:53:42;13.45;;;7.13;;
68821;SDS011;55834;50.870;4.606;2023-03-21T16:56:13;11.82;;;6.80;;